Weather at Wilson Helispot

Public forecast

Using degrees Fahrenheit for public forecast. Weather courtesy of forecast.io.

Closest aviation weather report (METAR) to Wilson Helispot

Closest report is Aurora State Airport, 6.5 nm (12.1 km) SSW. Retrieved 2021/06/20 09:53 UTC (20 minutes ago):

KUAO 200953Z AUTO 36004KT 10SM CLR 17/12 A2997 RMK AO2 SLP146 T01670122

Closest aviation forecast (TAF) to Wilson Helispot

Closest forecast is Aurora State Airport, 6.5 nm (12.1 km) SSW. Retrieved 2021/06/20 06:20 UTC (4 hours ago):

TAF KUAO 200520Z 2006/2106 35007KT P6SM SKC FM200900 VRB04KT P6SM SKC FM202000 01009KT P6SM SKC